Time;durP1;ratioP1;P1;durP2;ratioP2;P2;SDS_P1;SDS_P2;PMS_P1;PMS_P2;Temp;Humidity;BMP_temperature;BMP_pressure;BME280_temperature;BME280_humidity;BME280_pressure;Samples;Min_cycle;Max_cycle;Signal;HPM_P1;HPM_P2
2021/11/29 06:49:11;;;;;;;91.10;54.40;;;;;;;5.90;100.00;95420.84;1871632;76;27995;-63
2021/11/29 06:51:38;;;;;;;322.45;79.53;;;;;;;5.89;100.00;95429.11;1827790;78;20828;-60
2021/11/29 06:54:05;;;;;;;252.22;137.00;;;;;;;5.93;100.00;95430.83;1827764;78;21187;-61
2021/11/29 06:56:32;;;;;;;134.47;114.22;;;;;;;6.01;100.00;95427.87;1828230;78;20856;-62
2021/11/29 06:58:58;;;;;;;46.05;30.75;;;;;;;6.09;100.00;95416.42;1832427;77;20899;-61
2021/11/29 07:01:25;;;;;;;36.80;25.62;;;;;;;6.20;100.00;95425.56;1829302;78;20895;-59
2021/11/29 07:03:52;;;;;;;27.35;19.73;;;;;;;6.31;100.00;95438.72;1829247;78;20875;-64
2021/11/29 07:06:19;;;;;;;33.85;27.77;;;;;;;6.41;100.00;95440.97;1829437;78;21094;-62
2021/11/29 07:08:46;;;;;;;35.52;27.73;;;;;;;6.49;100.00;95438.80;1824850;77;21026;-59
2021/11/29 07:11:13;;;;;;;37.70;28.73;;;;;;;6.57;100.00;95432.62;1798682;78;20966;-62
2021/11/29 07:13:40;;;;;;;33.50;25.00;;;;;;;6.67;100.00;95434.89;1804569;77;20880;-58
2021/11/29 07:16:08;;;;;;;30.55;23.87;;;;;;;6.72;100.00;95441.34;1760395;78;20979;-62
2021/11/29 07:18:35;;;;;;;28.52;23.02;;;;;;;6.72;100.00;95444.00;1827817;78;21119;-61
2021/11/29 07:21:02;;;;;;;36.30;27.07;;;;;;;6.72;100.00;95450.66;1827793;78;20920;-64
2021/11/29 07:23:33;;;;;;;33.30;26.73;;;;;;;6.74;100.00;95446.33;1827766;78;20990;-58
2021/11/29 07:26:00;;;;;;;33.58;26.48;;;;;;;6.75;100.00;95444.69;1827774;78;20841;-63
2021/11/29 07:28:27;;;;;;;29.57;24.92;;;;;;;6.74;100.00;95447.11;1815637;77;21063;-61
2021/11/29 07:30:55;;;;;;;27.93;22.90;;;;;;;6.74;100.00;95448.44;1806991;77;21081;-59
2021/11/29 07:33:23;;;;;;;29.77;23.55;;;;;;;6.76;100.00;95446.23;1827592;78;20951;-60
2021/11/29 07:35:50;;;;;;;31.68;24.40;;;;;;;6.78;100.00;95437.36;1827795;78;20915;-60
2021/11/29 07:38:17;;;;;;;29.35;23.22;;;;;;;6.82;100.00;95430.84;1827784;78;20919;-61
2021/11/29 07:40:44;;;;;;;27.05;23.05;;;;;;;6.83;100.00;95439.83;1827788;78;21471;-59
2021/11/29 07:43:11;;;;;;;26.27;21.02;;;;;;;6.84;100.00;95441.39;1827802;78;20957;-59
2021/11/29 07:45:38;;;;;;;25.72;20.68;;;;;;;6.83;100.00;95438.49;1827745;78;20868;-62
2021/11/29 07:48:06;;;;;;;25.48;19.98;;;;;;;6.80;100.00;95438.38;1827795;78;21343;-61
2021/11/29 07:50:33;;;;;;;26.05;20.40;;;;;;;6.80;100.00;95435.72;1828754;78;20841;-61
2021/11/29 07:53:02;;;;;;;27.77;21.37;;;;;;;6.80;100.00;95428.53;1827946;78;20896;-60
2021/11/29 07:55:31;;;;;;;25.40;19.82;;;;;;;6.81;100.00;95432.73;1827960;78;20840;-62
2021/11/29 07:58:00;;;;;;;21.50;18.17;;;;;;;6.84;100.00;95432.62;1827906;78;20899;-63
2021/11/29 08:00:29;;;;;;;22.50;17.77;;;;;;;6.82;100.00;95435.63;1827502;78;20931;-60
2021/11/29 08:02:58;;;;;;;22.37;18.00;;;;;;;6.82;100.00;95434.30;1825910;78;20950;-59
2021/11/29 08:05:26;;;;;;;23.67;18.73;;;;;;;6.81;100.00;95442.03;1823501;78;20927;-62
2021/11/29 08:07:53;;;;;;;23.87;17.75;;;;;;;6.79;100.00;95425.63;1826060;78;21759;-59
2021/11/29 08:10:20;;;;;;;20.82;17.70;;;;;;;6.78;100.00;95418.73;1823849;78;20868;-61
2021/11/29 08:12:47;;;;;;;20.50;16.57;;;;;;;6.79;100.00;95413.66;1821474;78;21564;-61
2021/11/29 08:15:14;;;;;;;22.40;17.60;;;;;;;6.83;100.00;95417.21;1821173;78;20989;-62
2021/11/29 08:17:42;;;;;;;20.52;17.85;;;;;;;6.83;100.00;95419.09;1823196;78;21405;-62
2021/11/29 08:20:10;;;;;;;23.90;18.80;;;;;;;6.83;100.00;95413.22;1821736;78;21860;-60
2021/11/29 08:22:37;;;;;;;23.62;16.75;;;;;;;6.87;100.00;95416.80;1835380;77;20900;-61
2021/11/29 08:25:06;;;;;;;21.60;17.40;;;;;;;6.96;100.00;95413.26;1847723;77;20947;-61
2021/11/29 08:27:33;;;;;;;22.87;17.73;;;;;;;7.05;100.00;95414.73;1832309;77;20915;-61
2021/11/29 08:30:03;;;;;;;20.43;18.25;;;;;;;7.12;100.00;95413.63;1826458;78;21438;-61
2021/11/29 08:32:30;;;;;;;23.45;18.30;;;;;;;7.19;100.00;95411.20;1825395;78;21095;-58
2021/11/29 08:34:56;;;;;;;19.77;17.15;;;;;;;7.25;100.00;95411.78;1821759;78;20959;-60
2021/11/29 08:37:23;;;;;;;21.55;16.55;;;;;;;7.20;100.00;95408.00;1819322;77;21003;-61
2021/11/29 08:39:50;;;;;;;18.55;14.98;;;;;;;7.18;100.00;95407.55;1801561;78;20872;-60
2021/11/29 08:42:17;;;;;;;18.05;15.63;;;;;;;7.16;100.00;95416.43;1804424;78;20872;-59
2021/11/29 08:44:44;;;;;;;18.48;15.88;;;;;;;7.13;100.00;95427.73;1825256;78;21339;-61
2021/11/29 08:47:11;;;;;;;18.62;14.95;;;;;;;7.08;100.00;95419.95;1814878;78;20880;-58
2021/11/29 08:49:39;;;;;;;19.00;14.93;;;;;;;7.01;99.80;95419.70;1820771;78;20891;-60
2021/11/29 08:52:06;;;;;;;18.80;15.55;;;;;;;6.94;99.36;95430.11;1820367;78;20920;-61
2021/11/29 08:54:33;;;;;;;17.37;15.58;;;;;;;6.85;99.30;95422.98;1820148;78;20962;-60
2021/11/29 08:57:00;;;;;;;17.25;15.38;;;;;;;6.80;99.51;95419.77;1818824;78;21489;-59
2021/11/29 08:59:27;;;;;;;18.17;14.95;;;;;;;6.75;99.13;95423.41;1821275;78;20971;-61
2021/11/29 09:01:55;;;;;;;16.05;14.07;;;;;;;6.68;99.17;95423.16;1821981;78;20955;-59
2021/11/29 09:04:22;;;;;;;16.50;13.93;;;;;;;6.64;99.18;95421.48;1821837;77;20884;-61
2021/11/29 09:06:49;;;;;;;16.17;13.95;;;;;;;6.58;99.26;95426.20;1821476;78;21529;-61
2021/11/29 09:09:16;;;;;;;15.93;13.25;;;;;;;6.56;99.32;95421.77;1819970;78;20962;-60
2021/11/29 09:11:43;;;;;;;13.88;12.03;;;;;;;6.53;99.09;95424.29;1814682;78;20948;-58
2021/11/29 09:14:10;;;;;;;13.25;11.43;;;;;;;6.46;99.22;95412.85;1816787;78;20864;-61
2021/11/29 09:16:37;;;;;;;14.20;11.93;;;;;;;6.43;99.31;95416.16;1812045;78;20959;-59
2021/11/29 09:19:04;;;;;;;12.80;11.35;;;;;;;6.36;99.46;95405.27;1812446;79;20923;-61
2021/11/29 09:21:31;;;;;;;12.53;9.80;;;;;;;6.31;99.55;95414.79;1793713;79;21115;-64
2021/11/29 09:23:58;;;;;;;10.43;9.33;;;;;;;6.28;99.54;95410.66;1816559;78;20992;-62
2021/11/29 09:26:25;;;;;;;10.53;8.63;;;;;;;6.20;99.70;95414.38;1798666;78;21008;-60
2021/11/29 09:28:52;;;;;;;10.45;9.45;;;;;;;6.15;99.91;95404.48;1821657;77;20924;-62
2021/11/29 09:31:19;;;;;;;10.00;8.98;;;;;;;6.12;100.00;95406.48;1818388;78;20996;-62
2021/11/29 09:33:48;;;;;;;11.75;8.45;;;;;;;6.10;100.00;95404.70;1831798;78;21478;-60
2021/11/29 09:36:16;;;;;;;9.43;7.67;;;;;;;6.14;100.00;95404.28;1818449;78;21015;-61
2021/11/29 09:38:43;;;;;;;9.13;8.10;;;;;;;6.16;100.00;95407.38;1819849;77;21603;-61
2021/11/29 09:41:10;;;;;;;8.48;7.62;;;;;;;6.20;100.00;95418.91;1813768;78;21033;-59
2021/11/29 09:43:38;;;;;;;11.93;7.92;;;;;;;6.23;100.00;95418.28;1818251;78;21124;-65
2021/11/29 09:46:09;;;;;;;8.00;7.22;;;;;;;6.26;100.00;95412.32;1799241;79;21129;-64
2021/11/29 09:48:35;;;;;;;8.73;7.80;;;;;;;6.23;99.77;95402.88;1808631;79;21050;-64
2021/11/29 09:51:04;;;;;;;9.30;7.70;;;;;;;6.15;99.73;95405.27;1803867;79;20950;-60
2021/11/29 09:53:32;;;;;;;11.57;7.85;;;;;;;6.09;99.96;95411.11;1806378;79;20904;-62
2021/11/29 09:56:00;;;;;;;7.83;6.97;;;;;;;6.02;100.00;95416.94;1796006;79;21007;-60
2021/11/29 09:58:28;;;;;;;9.68;7.55;;;;;;;5.96;100.00;95412.11;1776853;80;21125;-62
2021/11/29 10:00:59;;;;;;;8.85;7.95;;;;;;;5.96;100.00;95408.91;1777031;80;20880;-61
2021/11/29 10:03:26;;;;;;;9.20;8.03;;;;;;;5.98;100.00;95408.61;1788885;79;20959;-64
2021/11/29 10:05:54;;;;;;;10.90;8.15;;;;;;;5.98;100.00;95401.97;1785790;79;20966;-61
2021/11/29 10:08:35;;;;;;;9.53;8.10;;;;;;;5.97;100.00;95401.19;1746322;82;20983;-60
2021/11/29 10:11:11;;;;;;;8.78;7.85;;;;;;;5.97;100.00;95397.74;1746198;81;21693;-59
2021/11/29 10:13:52;;;;;;;8.58;7.67;;;;;;;5.96;100.00;95389.53;1745953;81;20941;-63
2021/11/29 10:16:42;;;;;;;9.33;7.50;;;;;;;5.94;100.00;95393.06;1751730;81;20925;-61
2021/11/29 10:19:24;;;;;;;8.98;7.78;;;;;;;5.89;100.00;95386.61;1734465;82;20987;-63
2021/11/29 10:21:52;;;;;;;14.45;9.55;;;;;;;5.84;100.00;95398.74;1743922;81;20928;-61
2021/11/29 10:24:19;;;;;;;9.78;8.73;;;;;;;5.79;100.00;95390.95;1761217;80;21415;-60
2021/11/29 10:26:52;;;;;;;9.58;8.48;;;;;;;5.73;100.00;95392.23;1760950;81;20979;-58
2021/11/29 10:29:19;;;;;;;9.40;8.18;;;;;;;5.69;100.00;95400.62;1820788;78;20910;-64
2021/11/29 10:31:51;;;;;;;10.20;8.80;;;;;;;5.57;100.00;95399.98;1818050;78;21459;-60
2021/11/29 10:34:22;;;;;;;8.58;7.67;;;;;;;5.45;100.00;95397.22;1819101;78;20879;-63
2021/11/29 10:36:57;;;;;;;8.63;7.17;;;;;;;5.39;100.00;95407.80;1818536;78;21075;-64
2021/11/29 10:39:28;;;;;;;7.67;6.67;;;;;;;5.33;100.00;95400.55;1789579;77;20935;-61
2021/11/29 10:42:01;;;;;;;8.53;6.33;;;;;;;5.31;100.00;95405.41;1788982;79;21412;-63
2021/11/29 10:44:34;;;;;;;7.15;6.12;;;;;;;5.26;100.00;95401.59;1814505;79;21051;-61
2021/11/29 10:47:16;;;;;;;9.53;6.12;;;;;;;5.26;100.00;95405.58;1814934;78;21500;-64
2021/11/29 10:49:49;;;;;;;6.60;5.40;;;;;;;5.24;100.00;95405.66;1822472;78;21347;-63
2021/11/29 10:52:21;;;;;;;6.97;5.60;;;;;;;5.21;100.00;95403.09;1787836;80;21552;-62
2021/11/29 10:54:48;;;;;;;4.70;4.20;;;;;;;5.17;100.00;95407.48;1800768;78;21476;-65
2021/11/29 10:57:16;;;;;;;5.78;4.65;;;;;;;5.13;100.00;95410.55;1812807;78;20989;-65
2021/11/29 10:59:45;;;;;;;4.83;4.20;;;;;;;5.03;99.34;95413.54;1796882;78;21536;-63
2021/11/29 11:02:26;;;;;;;7.40;4.47;;;;;;;4.93;99.25;95417.06;1787135;80;21667;-65
2021/11/29 11:05:09;;;;;;;5.90;4.42;;;;;;;4.84;99.17;95415.77;1787224;80;20958;-62
2021/11/29 11:07:39;;;;;;;5.25;4.40;;;;;;;4.78;99.42;95405.86;1786896;80;21481;-59
2021/11/29 11:10:13;;;;;;;5.95;4.78;;;;;;;4.75;99.36;95401.75;1787183;80;21018;-61
2021/11/29 11:12:40;;;;;;;4.62;3.87;;;;;;;4.70;99.49;95401.37;1787285;80;20946;-64
2021/11/29 11:15:16;;;;;;;7.15;5.15;;;;;;;4.69;99.87;95402.45;1787632;80;21743;-61
2021/11/29 11:17:53;;;;;;;5.47;4.62;;;;;;;4.68;99.88;95400.13;1788295;80;21396;-62
2021/11/29 11:20:21;;;;;;;6.95;5.20;;;;;;;4.66;100.00;95402.31;1806967;78;20911;-63
2021/11/29 11:22:51;;;;;;;6.22;4.80;;;;;;;4.65;100.00;95396.77;1792292;80;20976;-64
2021/11/29 11:25:26;;;;;;;6.08;3.90;;;;;;;4.64;100.00;95402.61;1792274;80;21413;-65
2021/11/29 11:27:59;;;;;;;;;;;;;;;4.65;99.83;95404.72;1795262;80;21723;-63
2021/11/29 11:30:35;;;;;;;5.03;3.80;;;;;;;4.59;98.71;95405.98;1792263;80;20364;-62
2021/11/29 11:33:16;;;;;;;5.83;3.87;;;;;;;4.45;98.20;95400.08;1792523;80;21622;-59
2021/11/29 11:35:47;;;;;;;4.33;3.58;;;;;;;4.34;98.30;95393.52;1792390;80;20972;-65
2021/11/29 11:38:20;;;;;;;4.42;3.77;;;;;;;4.26;98.64;95394.31;1792672;80;21535;-63
2021/11/29 11:40:50;;;;;;;5.40;4.10;;;;;;;4.18;98.75;95396.41;1780625;80;21126;-60
2021/11/29 11:43:20;;;;;;;5.62;4.03;;;;;;;4.10;98.32;95417.28;1782590;80;20896;-61
2021/11/29 11:45:48;;;;;;;5.53;4.10;;;;;;;3.99;98.16;95420.02;1783053;80;20928;-63
2021/11/29 11:48:17;;;;;;;5.28;4.17;;;;;;;3.89;98.05;95429.56;1782940;80;20987;-63
2021/11/29 11:50:49;;;;;;;7.22;4.83;;;;;;;3.84;98.26;95450.89;1774185;80;20980;-63
2021/11/29 11:53:16;;;;;;;5.87;4.47;;;;;;;3.81;98.35;95470.60;1773385;81;21128;-60
2021/11/29 11:55:47;;;;;;;7.12;4.80;;;;;;;3.75;97.93;95493.78;1774080;81;20976;-61
2021/11/29 11:58:34;;;;;;;7.10;5.30;;;;;;;3.61;97.44;95489.14;1753497;81;21010;-62
2021/11/29 12:01:10;;;;;;;7.12;4.58;;;;;;;3.44;97.03;95503.61;1764358;81;20997;-62
2021/11/29 12:03:44;;;;;;;6.28;4.47;;;;;;;3.30;96.73;95471.17;1774586;81;21079;-64
2021/11/29 12:06:13;;;;;;;7.12;4.72;;;;;;;3.22;96.89;95481.19;1770512;80;21065;-60
2021/11/29 12:08:57;;;;;;;7.05;5.03;;;;;;;3.13;96.83;95471.11;1760351;81;21395;-64
2021/11/29 12:11:51;;;;;;;6.22;4.60;;;;;;;3.06;96.87;95462.83;1760866;81;20936;-60
2021/11/29 12:14:31;;;;;;;8.13;4.87;;;;;;;2.95;97.10;95462.81;1760551;81;21055;-63
2021/11/29 12:17:02;;;;;;;7.60;4.47;;;;;;;2.92;97.49;95468.73;1767670;81;21073;-62
2021/11/29 12:19:35;;;;;;;8.58;5.03;;;;;;;2.91;97.43;95476.41;1757885;81;21121;-60
2021/11/29 12:22:20;;;;;;;8.30;5.53;;;;;;;2.90;97.49;95473.55;1743531;82;20917;-59
2021/11/29 12:24:56;;;;;;;6.55;4.78;;;;;;;2.91;97.41;95461.87;1743564;82;20936;-59
2021/11/29 12:27:45;;;;;;;9.28;6.37;;;;;;;2.89;97.57;95454.78;1743360;82;21332;-61
2021/11/29 12:30:43;;;;;;;7.30;4.92;;;;;;;2.90;97.68;95455.80;1719655;82;20900;-61
2021/11/29 12:33:15;;;;;;;7.65;5.30;;;;;;;2.91;97.37;95461.87;1743305;82;21205;-59
2021/11/29 12:35:45;;;;;;;7.22;5.17;;;;;;;2.92;97.04;95468.73;1743339;82;20932;-62
2021/11/29 12:38:17;;;;;;;8.15;5.50;;;;;;;2.92;96.98;95481.95;1743031;82;21074;-62
2021/11/29 12:40:56;;;;;;;9.50;5.58;;;;;;;2.88;96.83;95491.55;1735533;79;21032;-60
2021/11/29 12:43:43;;;;;;;7.53;5.20;;;;;;;2.83;96.38;95496.98;1789490;77;21140;-58
2021/11/29 12:46:33;;;;;;;9.60;4.78;;;;;;;2.78;96.46;95502.38;1821174;77;21529;-62
2021/11/29 12:49:04;;;;;;;6.78;4.30;;;;;;;2.73;96.13;95506.69;1847476;77;20944;-59
2021/11/29 12:51:54;;;;;;;7.58;5.55;;;;;;;2.69;95.98;95512.34;1839731;77;21478;-63
2021/11/29 12:54:44;;;;;;;7.92;4.92;;;;;;;2.67;95.89;95503.94;1812802;77;20880;-60
2021/11/29 12:57:30;;;;;;;7.15;4.85;;;;;;;2.63;95.61;95506.94;1852451;77;20868;-59
2021/11/29 13:00:10;;;;;;;7.75;5.25;;;;;;;2.63;95.83;95506.94;1852283;77;21953;-61
2021/11/29 13:02:52;;;;;;;6.53;5.28;;;;;;;2.64;95.57;95509.02;1819886;77;20916;-59
2021/11/29 13:05:29;;;;;;;7.80;5.60;;;;;;;2.61;95.55;95509.11;1852488;77;20911;-60
2021/11/29 13:08:20;;;;;;;7.50;5.40;;;;;;;2.58;95.74;95520.27;1852530;77;20983;-60
2021/11/29 13:11:13;;;;;;;7.42;5.62;;;;;;;2.60;95.59;95528.67;1783594;79;20924;-60
2021/11/29 13:14:09;;;;;;;9.08;6.17;;;;;;;2.58;95.10;95534.80;1783721;80;21954;-58
2021/11/29 13:16:46;;;;;;;9.40;6.87;;;;;;;2.57;94.86;95543.80;1746049;82;20946;-62
2021/11/29 13:19:25;;;;;;;7.33;5.65;;;;;;;2.54;94.87;95547.59;1746302;81;21506;-62
2021/11/29 13:22:03;;;;;;;7.12;5.58;;;;;;;2.52;94.68;95550.52;1768393;80;21411;-58
2021/11/29 13:24:49;;;;;;;8.73;6.10;;;;;;;2.54;94.65;95544.39;1764651;80;20958;-61
2021/11/29 13:27:24;;;;;;;8.18;6.33;;;;;;;2.55;94.48;95545.17;1743150;81;21699;-64
2021/11/29 13:30:00;;;;;;;8.95;5.70;;;;;;;2.54;94.52;95545.70;1782111;80;20845;-60
2021/11/29 13:32:30;;;;;;;8.55;6.20;;;;;;;2.55;94.58;95549.92;1781946;80;20959;-61
2021/11/29 13:35:03;;;;;;;8.45;6.28;;;;;;;2.53;94.63;95549.45;1782256;80;20928;-60
2021/11/29 13:37:38;;;;;;;7.55;5.80;;;;;;;2.51;94.19;95558.75;1781908;80;20881;-60
2021/11/29 13:40:13;;;;;;;7.72;5.78;;;;;;;2.43;93.93;95550.98;1781440;77;21857;-66
2021/11/29 13:42:54;;;;;;;6.90;5.75;;;;;;;2.38;94.05;95549.76;1779893;79;21466;-62
2021/11/29 13:45:27;;;;;;;7.62;6.28;;;;;;;2.34;94.00;95539.55;1797612;79;21272;-58
2021/11/29 13:48:10;;;;;;;10.18;7.05;;;;;;;2.34;93.67;95546.16;1783746;79;20955;-59
2021/11/29 13:50:45;;;;;;;7.90;6.03;;;;;;;2.33;93.88;95539.30;1783674;78;20936;-58
2021/11/29 13:53:15;;;;;;;8.75;6.20;;;;;;;2.33;93.74;95546.47;1783289;79;21435;-59
2021/11/29 13:55:48;;;;;;;9.35;6.42;;;;;;;2.31;93.74;95557.31;1746572;82;20963;-59
2021/11/29 13:58:20;;;;;;;9.03;6.53;;;;;;;2.28;93.62;95551.84;1746224;82;21418;-60
2021/11/29 14:00:52;;;;;;;9.68;6.05;;;;;;;2.25;93.62;95555.86;1746237;82;20962;-59
2021/11/29 14:03:23;;;;;;;6.92;5.30;;;;;;;2.24;93.55;95546.36;1746338;82;20888;-61
2021/11/29 14:05:58;;;;;;;7.80;6.22;;;;;;;2.21;92.98;95557.53;1770957;80;21084;-62
2021/11/29 14:08:34;;;;;;;7.83;5.92;;;;;;;2.17;93.28;95550.50;1776676;79;21148;-63
2021/11/29 14:11:05;;;;;;;9.48;6.12;;;;;;;2.15;93.43;95558.70;1748947;82;21594;-60
2021/11/29 14:13:39;;;;;;;7.97;5.83;;;;;;;2.15;93.15;95556.59;1749280;82;20988;-58
2021/11/29 14:16:15;;;;;;;6.92;5.10;;;;;;;2.08;93.00;95570.98;1749361;82;20953;-60
2021/11/29 14:18:44;;;;;;;7.35;5.95;;;;;;;2.04;92.49;95573.19;1750689;81;21429;-60
2021/11/29 14:21:20;;;;;;;8.30;5.97;;;;;;;1.98;92.68;95571.70;1749101;82;20966;-58
2021/11/29 14:23:57;;;;;;;7.53;5.50;;;;;;;1.93;92.96;95566.55;1749356;82;21024;-59
2021/11/29 14:26:38;;;;;;;8.10;5.62;;;;;;;1.88;93.22;95561.37;1749527;82;20984;-62
2021/11/29 14:29:15;;;;;;;8.18;6.00;;;;;;;1.85;93.33;95559.30;1750103;82;21045;-62
2021/11/29 14:31:46;;;;;;;7.58;5.97;;;;;;;1.87;93.54;95565.86;1750040;82;21209;-60
2021/11/29 14:34:18;;;;;;;8.28;5.35;;;;;;;1.85;92.91;95573.30;1750657;82;20886;-59
2021/11/29 14:37:06;;;;;;;6.97;5.37;;;;;;;1.82;92.35;95576.50;1750790;82;21512;-61
2021/11/29 14:39:41;;;;;;;7.78;5.80;;;;;;;1.76;92.51;95582.18;1750868;82;20914;-63
2021/11/29 14:42:21;;;;;;;7.83;5.83;;;;;;;1.72;92.81;95587.80;1750923;82;20945;-59
